Time;durP1;ratioP1;P1;durP2;ratioP2;P2;SDS_P1;SDS_P2;PMS_P1;PMS_P2;Temp;Humidity;BMP_temperature;BMP_pressure;BME280_temperature;BME280_humidity;BME280_pressure;Samples;Min_cycle;Max_cycle;Signal;HPM_P1;HPM_P2
2022/10/03 07:58:50;;;;;;;;;8.50;8.50;;;;;;;;5191691;27;80090;-78
2022/10/03 08:01:18;;;;;;;;;5.50;4.00;;;;;;;;5198687;27;21768;-77
2022/10/03 08:03:43;;;;;;;;;5.75;4.75;;;;;;;;5199127;27;11585;-79
2022/10/03 08:06:27;;;;;;;;;5.67;4.67;;;;;;;;5198996;27;9788;-79
2022/10/03 08:08:52;;;;;;;;;5.00;5.00;;;;;;;;5199033;27;8782;-79
2022/10/03 08:11:36;;;;;;;;;7.00;4.00;;;;;;;;5199267;27;10583;-79
2022/10/03 08:14:20;;;;;;;;;5.00;5.00;;;;;;;;5199216;27;9055;-78
2022/10/03 08:16:49;;;;;;;;;8.00;6.75;;;;;;;;5199024;27;9761;-78
2022/10/03 08:19:37;;;;;;;;;5.25;2.50;;;;;;;;5179561;27;12366;-78
2022/10/03 08:22:32;;;;;;;;;5.75;4.00;;;;;;;;5199055;27;11589;-79
2022/10/03 08:25:23;;;;;;;;;4.75;4.75;;;;;;;;5122216;27;10544;-79
2022/10/03 08:27:51;;;;;;;;;5.25;3.50;;;;;;;;5165566;27;11403;-79
2022/10/03 08:30:17;;;;;;;;;3.25;3.00;;;;;;;;5198468;27;12061;-79
2022/10/03 08:32:55;;;;;;;;;2.33;2.33;;;;;;;;5198794;27;11315;-79
2022/10/03 08:35:27;;;;;;;;;3.50;2.00;;;;;;;;5198302;27;11396;-77
2022/10/03 08:37:55;;;;;;;;;2.75;2.75;;;;;;;;5198364;27;11596;-78
2022/10/03 08:40:36;;;;;;;;;5.25;4.00;;;;;;;;5198656;27;11940;-78
2022/10/03 08:43:37;;;;;;;;;5.50;2.50;;;;;;;;5198904;27;11577;-79
2022/10/03 08:46:08;;;;;;;;;2.00;2.00;;;;;;;;5112606;28;10597;-79
2022/10/03 08:48:45;;;;;;;;;3.00;2.00;;;;;;;;5112830;28;11446;-80
2022/10/03 08:51:29;;;;;;;;;5.00;5.00;;;;;;;;5112960;28;8906;-80
2022/10/03 08:54:13;;;;;;;;;3.80;3.80;;;;;;;;5112632;28;8763;-79
2022/10/03 08:56:47;;;;;;;;;4.40;4.00;;;;;;;;5112293;28;11381;-80
2022/10/03 08:59:15;;;;;;;;;6.60;6.20;;;;;;;;5112794;28;11600;-80
2022/10/03 09:01:52;;;;;;;;;4.40;3.40;;;;;;;;5112310;28;12548;-79
2022/10/03 09:04:36;;;;;;;;;5.80;4.80;;;;;;;;5112198;28;11969;-79
2022/10/03 09:07:16;;;;;;;;;6.00;4.00;;;;;;;;5112257;28;13596;-79
2022/10/03 09:10:00;;;;;;;;;5.00;4.40;;;;;;;;5100788;28;11433;-81
2022/10/03 09:12:51;;;;;;;;;4.00;4.00;;;;;;;;5098688;28;11638;-80
2022/10/03 09:15:19;;;;;;;;;4.00;4.00;;;;;;;;5081179;28;11981;-81
2022/10/03 09:17:56;;;;;;;;;5.20;4.00;;;;;;;;5081985;28;8834;-80
2022/10/03 09:20:40;;;;;;;;;4.00;4.00;;;;;;;;5152724;27;8886;-81
2022/10/03 09:23:11;;;;;;;;;3.20;3.20;;;;;;;;5165221;27;11356;-81
2022/10/03 09:25:54;;;;;;;;;5.80;2.00;;;;;;;;5165006;27;13661;-80
2022/10/03 09:28:22;;;;;;;;;6.60;4.00;;;;;;;;5183964;27;12524;-80
2022/10/03 09:30:53;;;;;;;;;4.00;3.00;;;;;;;;5184350;27;10340;-81
2022/10/03 09:33:19;;;;;;;;;2.40;1.40;;;;;;;;5184061;27;10492;-81
2022/10/03 09:35:50;;;;;;;;;2.00;2.00;;;;;;;;5184728;27;11621;-81
2022/10/03 09:38:33;;;;;;;;;3.60;2.00;;;;;;;;5183713;27;10617;-82
2022/10/03 09:41:01;;;;;;;;;3.00;2.00;;;;;;;;5184082;27;8797;-82
2022/10/03 09:43:35;;;;;;;;;1.60;1.00;;;;;;;;5189422;27;8786;-82
2022/10/03 09:46:03;;;;;;;;;3.80;2.00;;;;;;;;5193556;27;10796;-83
2022/10/03 09:48:51;;;;;;;;;0.60;0.60;;;;;;;;5184510;27;10529;-83
2022/10/03 09:51:32;;;;;;;;;1.00;1.00;;;;;;;;5184344;27;11922;-82
2022/10/03 09:54:17;;;;;;;;;2.00;1.00;;;;;;;;5165241;27;14106;-83
2022/10/03 09:56:46;;;;;;;;;0.40;0.00;;;;;;;;5183711;27;8808;-82
2022/10/03 09:59:14;;;;;;;;;2.60;1.00;;;;;;;;5183908;27;10823;-83
2022/10/03 10:01:51;;;;;;;;;1.00;1.00;;;;;;;;5183495;27;10925;-81
2022/10/03 10:04:16;;;;;;;;;1.00;1.00;;;;;;;;5164572;27;8906;-84
2022/10/03 10:07:00;;;;;;;;;1.00;1.00;;;;;;;;5163982;27;8900;-84
2022/10/03 10:09:48;;;;;;;;;3.00;2.60;;;;;;;;5183651;27;8770;-84
2022/10/03 10:12:32;;;;;;;;;3.00;2.00;;;;;;;;5183213;27;11767;-85
2022/10/03 10:15:03;;;;;;;;;0.80;0.60;;;;;;;;5164709;27;8810;-84
2022/10/03 10:17:34;;;;;;;;;2.00;2.00;;;;;;;;5183550;27;11422;-86
2022/10/03 10:20:06;;;;;;;;;1.00;0.00;;;;;;;;5182694;27;11552;-87
2022/10/03 10:22:34;;;;;;;;;0.00;0.00;;;;;;;;5183709;27;8773;-85
2022/10/03 10:25:19;;;;;;;;;1.00;1.00;;;;;;;;5184248;27;8781;-86
2022/10/03 10:28:03;;;;;;;;;1.80;1.00;;;;;;;;5184430;27;8889;-84
2022/10/03 10:30:48;;;;;;;;;1.00;1.00;;;;;;;;5184924;27;8813;-85
2022/10/03 10:33:35;;;;;;;;;5.00;3.60;;;;;;;;5150018;27;8899;-84
2022/10/03 10:36:19;;;;;;;;;1.80;1.80;;;;;;;;5158214;22;11654;-79
2022/10/03 10:38:45;;;;;;;;;1.00;1.00;;;;;;;;5121524;27;12060;-79
2022/10/03 10:41:33;;;;;;;;;3.00;2.00;;;;;;;;5140569;27;8789;-78
2022/10/03 10:44:05;;;;;;;;;1.00;1.00;;;;;;;;5140869;27;8786;-79
2022/10/03 10:46:33;;;;;;;;;2.20;1.40;;;;;;;;5121581;27;8817;-80
2022/10/03 10:49:01;;;;;;;;;2.00;2.00;;;;;;;;5140435;27;11683;-79
2022/10/03 10:51:32;;;;;;;;;1.00;1.00;;;;;;;;5140163;27;10849;-79
2022/10/03 10:53:58;;;;;;;;;3.00;1.20;;;;;;;;5140594;27;8802;-76
2022/10/03 10:56:42;;;;;;;;;3.00;2.00;;;;;;;;5139993;27;13028;-74
2022/10/03 10:59:26;;;;;;;;;1.00;1.00;;;;;;;;5121152;27;9319;-74
2022/10/03 11:02:00;;;;;;;;;1.80;1.80;;;;;;;;5140203;27;9164;-75
2022/10/03 11:04:40;;;;;;;;;1.80;1.60;;;;;;;;5139603;27;8801;-76
2022/10/03 11:07:24;;;;;;;;;2.00;2.00;;;;;;;;5121006;27;8790;-75
2022/10/03 11:10:01;;;;;;;;;1.00;1.00;;;;;;;;5139641;27;11432;-74
2022/10/03 11:12:36;;;;;;;;;2.80;2.80;;;;;;;;5120837;27;9310;-75
2022/10/03 11:15:17;;;;;;;;;3.25;3.25;;;;;;;;5139787;27;11575;-80
2022/10/03 11:17:56;;;;;;;;;1.80;1.20;;;;;;;;5121038;27;11083;-77
2022/10/03 11:20:27;;;;;;;;;2.50;2.00;;;;;;;;5139525;27;11341;-77
2022/10/03 11:22:55;;;;;;;;;2.00;2.00;;;;;;;;5120544;27;13811;-71
2022/10/03 11:25:50;;;;;;;;;3.75;3.75;;;;;;;;5139300;27;8794;-73
2022/10/03 11:28:43;;;;;;;;;4.50;3.50;;;;;;;;5117753;27;12040;-72
2022/10/03 11:31:17;;;;;;;;;3.00;3.00;;;;;;;;5136696;27;13644;-74
2022/10/03 11:33:57;;;;;;;;;4.00;3.25;;;;;;;;5139370;27;11619;-82
2022/10/03 11:36:46;;;;;;;;;3.00;3.00;;;;;;;;5137654;27;13487;-79
2022/10/03 11:39:21;;;;;;;;;1.75;1.75;;;;;;;;5137813;27;13607;-78
2022/10/03 11:41:59;;;;;;;;;2.50;2.50;;;;;;;;5137701;27;13961;-79
2022/10/03 11:44:24;;;;;;;;;4.25;3.50;;;;;;;;5139045;27;11621;-76
2022/10/03 11:47:08;;;;;;;;;3.67;2.33;;;;;;;;5139202;27;10515;-76
2022/10/03 11:49:36;;;;;;;;;4.00;3.00;;;;;;;;5139191;27;11631;-73
2022/10/03 11:52:10;;;;;;;;;3.00;3.00;;;;;;;;5138561;27;11947;-73
2022/10/03 11:54:39;;;;;;;;;3.50;3.00;;;;;;;;5128854;27;9745;-73
2022/10/03 11:57:04;;;;;;;;;3.00;3.00;;;;;;;;5138838;27;8771;-74
2022/10/03 11:59:49;;;;;;;;;4.67;4.00;;;;;;;;5138501;27;8886;-73
2022/10/03 12:02:24;;;;;;;;;2.25;2.25;;;;;;;;5123458;27;11069;-74
2022/10/03 12:04:53;;;;;;;;;5.75;3.00;;;;;;;;5136288;27;11701;-74
2022/10/03 12:10:29;;;;;;;;;3.25;3.25;;;;;;;;5136297;27;11365;-75
2022/10/03 12:12:55;;;;;;;;;3.75;3.00;;;;;;;;5136496;27;8788;-74
2022/10/03 12:15:37;;;;;;;;;6.00;5.00;;;;;;;;5138595;27;9728;-73
2022/10/03 12:18:05;;;;;;;;;6.00;4.00;;;;;;;;5137189;27;10885;-73
2022/10/03 12:20:37;;;;;;;;;5.00;4.50;;;;;;;;5137804;27;8916;-72
2022/10/03 12:23:08;;;;;;;;;4.25;4.25;;;;;;;;5135879;27;11383;-73
2022/10/03 12:25:35;;;;;;;;;7.00;7.00;;;;;;;;5137723;27;11754;-73
2022/10/03 12:28:20;;;;;;;;;5.50;4.50;;;;;;;;5137641;27;11668;-73
2022/10/03 12:30:46;;;;;;;;;5.00;5.00;;;;;;;;5136452;27;12018;-72
2022/10/03 12:33:31;;;;;;;;;6.75;5.25;;;;;;;;5138416;27;10691;-77
2022/10/03 12:36:05;;;;;;;;;6.25;5.50;;;;;;;;5137448;27;11834;-74
2022/10/03 12:38:39;;;;;;;;;7.00;4.00;;;;;;;;5138333;27;9092;-75
2022/10/03 12:41:04;;;;;;;;;5.00;5.00;;;;;;;;5136047;27;11517;-75
2022/10/03 12:43:56;;;;;;;;;5.00;5.00;;;;;;;;5126271;27;9031;-79
2022/10/03 12:46:39;;;;;;;;;3.00;3.00;;;;;;;;5088850;27;8794;-73
2022/10/03 12:49:10;;;;;;;;;6.00;5.00;;;;;;;;5140061;27;8940;-76
2022/10/03 12:51:44;;;;;;;;;5.00;4.00;;;;;;;;5141900;27;8844;-77
2022/10/03 12:54:25;;;;;;;;;4.50;4.50;;;;;;;;5142309;27;10213;-74
2022/10/03 12:57:09;;;;;;;;;4.50;4.50;;;;;;;;5142065;27;11795;-76
2022/10/03 12:59:39;;;;;;;;;4.00;3.00;;;;;;;;5142332;27;8802;-76
2022/10/03 13:02:08;;;;;;;;;6.25;6.00;;;;;;;;5122596;27;12358;-75
2022/10/03 13:04:42;;;;;;;;;5.25;5.00;;;;;;;;5122923;27;11044;-75
2022/10/03 13:07:20;;;;;;;;;4.25;4.25;;;;;;;;5141973;27;9023;-75
2022/10/03 13:10:04;;;;;;;;;5.25;5.25;;;;;;;;5141601;27;11887;-75
2022/10/03 13:12:44;;;;;;;;;5.25;4.25;;;;;;;;5138341;27;10811;-74
2022/10/03 13:15:29;;;;;;;;;5.00;5.00;;;;;;;;5141702;27;8834;-75
2022/10/03 13:17:57;;;;;;;;;4.75;4.75;;;;;;;;5123071;27;10492;-72
2022/10/03 13:20:38;;;;;;;;;6.00;5.00;;;;;;;;5139798;27;11410;-73
2022/10/03 13:23:29;;;;;;;;;6.00;5.00;;;;;;;;5139068;27;11714;-72
2022/10/03 13:26:01;;;;;;;;;7.00;5.50;;;;;;;;5138017;27;8774;-72
2022/10/03 13:28:55;;;;;;;;;6.25;4.25;;;;;;;;5120537;27;13621;-71
2022/10/03 13:31:26;;;;;;;;;5.50;4.75;;;;;;;;5063699;27;11834;-72
2022/10/03 13:33:54;;;;;;;;;5.75;5.00;;;;;;;;5137287;27;11728;-75
2022/10/03 13:36:32;;;;;;;;;5.25;5.00;;;;;;;;5139631;27;10458;-74
2022/10/03 13:39:18;;;;;;;;;5.00;5.00;;;;;;;;5138016;27;8786;-74
2022/10/03 13:41:43;;;;;;;;;5.00;4.75;;;;;;;;5137655;27;8899;-73
2022/10/03 13:44:17;;;;;;;;;4.33;4.33;;;;;;;;5139483;27;8878;-73
2022/10/03 13:46:44;;;;;;;;;5.25;4.25;;;;;;;;5139238;27;11040;-74
2022/10/03 13:49:17;;;;;;;;;5.50;5.00;;;;;;;;5139262;27;8798;-74
2022/10/03 13:51:46;;;;;;;;;6.00;4.25;;;;;;;;5139632;27;10368;-73
2022/10/03 13:54:11;;;;;;;;;5.00;5.00;;;;;;;;5136109;27;11631;-74
2022/10/03 13:56:44;;;;;;;;;7.00;5.00;;;;;;;;5138945;27;11467;-72
2022/10/03 13:59:28;;;;;;;;;6.00;5.00;;;;;;;;5139554;27;10022;-73
2022/10/03 14:02:08;;;;;;;;;5.25;5.25;;;;;;;;5139233;27;8806;-72
2022/10/03 14:04:53;;;;;;;;;6.25;6.25;;;;;;;;5139216;27;11555;-72
2022/10/03 14:07:18;;;;;;;;;8.25;7.00;;;;;;;;5136576;27;8833;-73
2022/10/03 14:10:02;;;;;;;;;6.00;6.00;;;;;;;;5120008;27;13726;-72
2022/10/03 14:12:46;;;;;;;;;6.00;6.00;;;;;;;;5138182;27;10391;-73
2022/10/03 14:15:11;;;;;;;;;7.00;4.75;;;;;;;;5138312;27;9777;-73
2022/10/03 14:17:53;;;;;;;;;5.00;5.00;;;;;;;;5138700;27;11660;-73
2022/10/03 14:20:21;;;;;;;;;7.00;5.00;;;;;;;;5136038;27;11488;-73
2022/10/03 14:22:49;;;;;;;;;5.75;5.75;;;;;;;;5129817;27;9627;-73
2022/10/03 14:25:23;;;;;;;;;7.00;7.00;;;;;;;;5137051;27;11564;-71
2022/10/03 14:27:49;;;;;;;;;5.00;4.25;;;;;;;;5140366;27;12108;-73
2022/10/03 14:30:20;;;;;;;;;4.33;4.33;;;;;;;;5117946;28;14535;-71
2022/10/03 14:33:05;;;;;;;;;5.25;5.25;;;;;;;;5119376;28;9110;-73
2022/10/03 14:35:37;;;;;;;;;4.75;4.00;;;;;;;;5119563;28;8792;-72
2022/10/03 14:38:13;;;;;;;;;6.00;6.00;;;;;;;;5100489;28;13753;-72
2022/10/03 14:40:45;;;;;;;;;4.25;3.75;;;;;;;;5100585;28;12549;-72
2022/10/03 14:43:13;;;;;;;;;7.00;7.00;;;;;;;;5119019;28;12798;-72
2022/10/03 14:45:42;;;;;;;;;6.00;6.00;;;;;;;;5119249;28;12680;-70
2022/10/03 14:48:26;;;;;;;;;5.00;5.00;;;;;;;;5118891;28;8808;-71
2022/10/03 14:50:54;;;;;;;;;7.50;5.00;;;;;;;;5119258;28;8787;-72
2022/10/03 14:53:26;;;;;;;;;4.75;4.75;;;;;;;;5119196;28;9170;-70
2022/10/03 14:55:55;;;;;;;;;5.50;3.25;;;;;;;;5118778;28;11686;-71
2022/10/03 14:58:31;;;;;;;;;6.75;4.50;;;;;;;;5124695;27;10635;-68
2022/10/03 15:01:18;;;;;;;;;7.00;6.67;;;;;;;;5139758;27;11700;-73
2022/10/03 15:03:53;;;;;;;;;5.75;5.00;;;;;;;;5139651;27;11665;-73
2022/10/03 15:06:20;;;;;;;;;7.67;6.00;;;;;;;;5120159;27;11733;-71
2022/10/03 15:08:48;;;;;;;;;6.50;6.50;;;;;;;;5139548;27;10819;-69
2022/10/03 15:11:15;;;;;;;;;8.25;7.25;;;;;;;;5139387;27;11636;-70
2022/10/03 15:13:52;;;;;;;;;6.75;5.50;;;;;;;;5139260;27;11635;-70
2022/10/03 15:16:19;;;;;;;;;5.00;5.00;;;;;;;;5139547;27;11660;-67
2022/10/03 15:18:50;;;;;;;;;6.00;4.50;;;;;;;;5120823;27;11852;-70
2022/10/03 15:21:16;;;;;;;;;4.50;4.00;;;;;;;;5139559;27;11668;-70
2022/10/03 15:23:43;;;;;;;;;4.50;4.00;;;;;;;;5139074;27;11387;-71
2022/10/03 15:26:14;;;;;;;;;4.50;4.50;;;;;;;;5139527;27;8766;-73
2022/10/03 15:28:42;;;;;;;;;5.50;4.00;;;;;;;;5139536;27;8786;-71
2022/10/03 15:31:12;;;;;;;;;4.50;4.50;;;;;;;;5137127;27;11756;-73
2022/10/03 15:33:38;;;;;;;;;26.50;24.25;;;;;;;;5138079;27;11703;-72
2022/10/03 15:36:09;;;;;;;;;11.00;11.00;;;;;;;;5136865;27;23185;-72
2022/10/03 15:38:39;;;;;;;;;11.33;10.33;;;;;;;;5136904;27;16432;-72
2022/10/03 15:41:07;;;;;;;;;15.00;12.33;;;;;;;;5139130;27;10477;-72
2022/10/03 15:43:40;;;;;;;;;8.50;7.50;;;;;;;;5139027;27;10991;-70
2022/10/03 15:46:11;;;;;;;;;7.50;7.00;;;;;;;;5138633;27;23557;-71
2022/10/03 15:48:37;;;;;;;;;9.67;9.67;;;;;;;;5138743;27;11795;-70
2022/10/03 15:51:05;;;;;;;;;6.75;6.75;;;;;;;;5138916;27;12928;-71
2022/10/03 15:53:34;;;;;;;;;8.00;8.00;;;;;;;;5138520;27;12095;-71
2022/10/03 15:56:14;;;;;;;;;7.67;7.67;;;;;;;;5136939;27;11619;-71
2022/10/03 15:58:47;;;;;;;;;6.67;6.00;;;;;;;;5135047;27;12600;-71
2022/10/03 16:01:18;;;;;;;;;5.00;5.00;;;;;;;;5136130;27;11614;-71
2022/10/03 16:03:49;;;;;;;;;7.50;6.00;;;;;;;;5138230;27;10816;-72
2022/10/03 16:06:17;;;;;;;;;8.00;6.00;;;;;;;;5138264;27;10856;-71
2022/10/03 16:08:53;;;;;;;;;6.67;6.33;;;;;;;;5138359;27;9189;-71
2022/10/03 16:11:22;;;;;;;;;7.67;7.67;;;;;;;;5138072;27;11651;-71
2022/10/03 16:13:54;;;;;;;;;8.33;8.33;;;;;;;;5135199;27;11872;-72
2022/10/03 16:16:30;;;;;;;;;6.75;6.75;;;;;;;;5137967;27;11905;-71
2022/10/03 16:19:02;;;;;;;;;5.75;5.50;;;;;;;;5139436;27;11791;-71
2022/10/03 16:21:48;;;;;;;;;6.50;6.50;;;;;;;;5142117;27;11625;-71
2022/10/03 16:24:33;;;;;;;;;8.00;8.00;;;;;;;;5087948;27;13409;-71
2022/10/03 16:27:20;;;;;;;;;7.00;7.00;;;;;;;;5141918;27;11728;-72
2022/10/03 16:30:05;;;;;;;;;8.00;6.67;;;;;;;;5142172;27;9005;-75
2022/10/03 16:32:33;;;;;;;;;9.00;7.00;;;;;;;;5126967;27;11890;-80
2022/10/03 16:35:02;;;;;;;;;9.00;8.67;;;;;;;;5141787;27;11619;-80
2022/10/03 16:37:29;;;;;;;;;11.00;11.00;;;;;;;;5122716;27;12106;-77
2022/10/03 16:39:58;;;;;;;;;12.00;12.00;;;;;;;;5141502;27;22281;-78
2022/10/03 16:42:25;;;;;;;;;11.00;9.67;;;;;;;;5141657;27;9183;-76
